Time;durP1;ratioP1;P1;durP2;ratioP2;P2;SDS_P1;SDS_P2;PMS_P1;PMS_P2;Temp;Humidity;BMP_temperature;BMP_pressure;BME280_temperature;BME280_humidity;BME280_pressure;Samples;Min_cycle;Max_cycle;Signal;HPM_P1;HPM_P2
2022/09/10 00:01:13;;;;;;;3.90;1.37;;;15.50;99.90;;;;;;5038745;28;20707;-83
2022/09/10 00:03:42;;;;;;;2.60;1.00;;;15.50;99.90;;;;;;5044267;28;20627;-83
2022/09/10 00:06:10;;;;;;;2.77;1.43;;;15.40;99.90;;;;;;5038984;28;20666;-83
2022/09/10 00:08:38;;;;;;;5.07;1.50;;;15.40;99.90;;;;;;5044493;28;20610;-84
2022/09/10 00:11:07;;;;;;;3.00;1.27;;;15.40;99.90;;;;;;5040521;28;20663;-84
2022/09/10 00:13:38;;;;;;;2.30;1.40;;;15.40;99.90;;;;;;5044270;28;20672;-84
2022/09/10 00:16:06;;;;;;;1.73;1.00;;;15.40;99.90;;;;;;5039640;28;20645;-84
2022/09/10 00:18:34;;;;;;;2.30;1.20;;;15.40;99.90;;;;;;5040595;28;20629;-84
2022/09/10 00:21:04;;;;;;;4.37;2.20;;;15.40;99.90;;;;;;5042092;28;21270;-84
2022/09/10 00:23:31;;;;;;;3.10;1.80;;;15.40;99.90;;;;;;5046867;28;20624;-84
2022/09/10 00:25:59;;;;;;;2.77;1.50;;;15.40;99.90;;;;;;5041347;28;20673;-84
2022/09/10 00:28:27;;;;;;;7.13;1.80;;;15.20;99.90;;;;;;5039542;28;20634;-84
2022/09/10 00:30:55;;;;;;;4.57;1.30;;;15.20;99.90;;;;;;5045722;28;21001;-84
2022/09/10 00:33:22;;;;;;;4.17;1.30;;;15.10;99.90;;;;;;5044337;28;20678;-84
2022/09/10 00:35:50;;;;;;;2.40;1.20;;;15.20;99.90;;;;;;5041123;28;21366;-84
2022/09/10 00:38:17;;;;;;;2.93;1.27;;;15.30;99.90;;;;;;5040125;28;21184;-84
2022/09/10 00:40:44;;;;;;;2.07;1.70;;;15.20;99.90;;;;;;5046244;28;20678;-84
2022/09/10 00:43:13;;;;;;;3.60;1.33;;;15.20;99.90;;;;;;5043349;28;20627;-84
2022/09/10 00:45:40;;;;;;;4.47;1.50;;;15.20;99.90;;;;;;5038051;28;21138;-84
2022/09/10 00:48:14;;;;;;;2.47;1.30;;;15.20;99.90;;;;;;5040779;28;20630;-84
2022/09/10 00:50:44;;;;;;;3.87;1.30;;;15.30;99.90;;;;;;5041307;28;20630;-84
2022/09/10 00:53:15;;;;;;;3.00;1.33;;;15.20;99.90;;;;;;5042200;28;20674;-85
2022/09/10 00:55:45;;;;;;;1.50;1.23;;;15.20;99.90;;;;;;5038058;28;20768;-85
2022/09/10 00:58:14;;;;;;;10.43;1.60;;;15.20;99.90;;;;;;5042067;28;20629;-84
2022/09/10 01:00:41;;;;;;;2.60;1.50;;;15.20;99.90;;;;;;5043259;28;20732;-84
2022/09/10 01:03:13;;;;;;;3.80;1.70;;;15.20;99.90;;;;;;5040878;28;20630;-84
2022/09/10 01:05:42;;;;;;;5.97;2.37;;;15.20;99.90;;;;;;5041637;28;20653;-84
2022/09/10 01:08:12;;;;;;;3.13;1.30;;;15.20;99.90;;;;;;5039207;28;20635;-84
2022/09/10 01:10:49;;;;;;;1.80;1.27;;;15.20;99.90;;;;;;5041507;28;20618;-83
2022/09/10 01:13:27;;;;;;;5.33;1.67;;;15.20;99.90;;;;;;5049747;28;20681;-83
2022/09/10 01:16:02;;;;;;;3.17;1.83;;;15.20;99.90;;;;;;5046012;28;20683;-83
2022/09/10 01:18:39;;;;;;;2.13;1.43;;;15.20;99.90;;;;;;5045920;28;20963;-84
2022/09/10 01:21:33;;;;;;;2.77;1.40;;;15.30;99.90;;;;;;5046726;28;20626;-84
2022/09/10 01:24:28;;;;;;;2.00;1.00;;;15.20;99.90;;;;;;4441915;28;5002366;-84
2022/09/10 01:27:32;;;;;;;2.00;1.00;;;15.30;99.90;;;;;;5005056;28;20644;-84
2022/09/10 01:30:05;;;;;;;3.70;1.57;;;15.30;99.90;;;;;;5006572;28;20667;-84
2022/09/10 01:32:38;;;;;;;2.17;1.30;;;15.40;99.90;;;;;;5002813;28;20698;-85
2022/09/10 01:35:13;;;;;;;1.70;1.10;;;15.30;99.90;;;;;;5004457;28;20661;-85
2022/09/10 01:37:43;;;;;;;2.77;1.17;;;15.30;99.90;;;;;;5004384;28;20630;-84
2022/09/10 01:40:11;;;;;;;2.70;1.10;;;15.30;99.90;;;;;;5002931;28;20647;-84
2022/09/10 01:42:40;;;;;;;2.10;1.17;;;15.30;99.90;;;;;;5006998;28;20624;-85
2022/09/10 01:45:13;;;;;;;2.70;1.30;;;15.30;99.90;;;;;;5002396;28;21242;-84
2022/09/10 01:48:07;;;;;;;1.43;1.13;;;15.30;99.90;;;;;;5006973;28;20686;-84
2022/09/10 01:50:43;;;;;;;1.57;0.80;;;15.30;99.90;;;;;;5003533;28;21123;-84
2022/09/10 01:53:32;;;;;;;2.40;1.00;;;15.30;99.90;;;;;;5000723;28;20664;-84
2022/09/10 01:56:04;;;;;;;2.87;1.30;;;15.30;99.90;;;;;;4989148;28;21065;-84
2022/09/10 01:58:36;;;;;;;2.70;1.50;;;15.30;99.90;;;;;;5000550;28;20650;-84
2022/09/10 02:01:12;;;;;;;1.10;0.90;;;15.30;99.90;;;;;;5006333;28;20628;-85
2022/09/10 02:03:41;;;;;;;1.27;1.17;;;15.30;99.90;;;;;;5006149;28;20624;-85
2022/09/10 02:06:14;;;;;;;2.57;1.57;;;15.30;99.90;;;;;;4999188;28;20672;-84
2022/09/10 02:08:43;;;;;;;2.30;1.63;;;15.30;99.90;;;;;;5005327;28;21174;-85
2022/09/10 02:11:13;;;;;;;1.63;1.03;;;15.30;99.90;;;;;;5002060;28;20996;-84
2022/09/10 02:13:41;;;;;;;1.70;1.30;;;15.30;99.90;;;;;;5008970;28;20663;-84
2022/09/10 02:16:12;;;;;;;4.20;1.47;;;15.30;99.90;;;;;;5000132;28;20660;-84
2022/09/10 02:18:41;;;;;;;4.37;2.10;;;15.30;99.90;;;;;;5004040;28;20627;-83
2022/09/10 02:21:10;;;;;;;2.23;1.40;;;15.30;99.90;;;;;;5006364;28;20635;-84
2022/09/10 02:23:41;;;;;;;1.90;1.47;;;15.30;99.90;;;;;;5003945;28;21621;-83
2022/09/10 02:26:08;;;;;;;2.70;1.47;;;15.30;99.90;;;;;;5001675;28;20758;-84
2022/09/10 02:28:36;;;;;;;2.20;1.33;;;15.20;99.90;;;;;;5001136;28;20690;-84
2022/09/10 02:31:03;;;;;;;1.70;1.60;;;15.30;99.90;;;;;;5002033;28;20636;-83
2022/09/10 02:33:31;;;;;;;2.23;1.50;;;15.30;99.90;;;;;;5003541;28;20663;-84
2022/09/10 02:35:58;;;;;;;2.20;1.40;;;15.20;99.90;;;;;;5003191;28;20795;-84
2022/09/10 02:38:24;;;;;;;1.80;1.50;;;15.20;99.90;;;;;;5004111;28;20627;-84
2022/09/10 02:40:51;;;;;;;2.53;1.60;;;15.30;99.90;;;;;;5007807;28;21018;-84
2022/09/10 02:43:18;;;;;;;1.40;1.30;;;15.20;99.90;;;;;;5006345;28;20646;-84
2022/09/10 02:45:45;;;;;;;2.33;1.60;;;15.20;99.90;;;;;;5003555;28;20651;-85
2022/09/10 02:48:12;;;;;;;3.57;1.40;;;15.20;99.90;;;;;;4999862;28;20637;-85
2022/09/10 02:50:40;;;;;;;4.57;1.97;;;15.20;99.90;;;;;;4998128;28;20658;-85
2022/09/10 02:53:07;;;;;;;2.80;2.00;;;15.20;99.90;;;;;;5008430;28;20671;-85
2022/09/10 02:55:34;;;;;;;3.13;2.63;;;15.20;99.90;;;;;;5004786;28;20656;-84
2022/09/10 02:58:00;;;;;;;2.03;1.90;;;15.20;99.90;;;;;;5006345;28;20653;-85
2022/09/10 03:00:27;;;;;;;3.40;2.30;;;15.10;99.90;;;;;;5001551;28;20643;-84
2022/09/10 03:02:55;;;;;;;2.23;2.03;;;15.20;99.90;;;;;;4998814;28;20998;-84
2022/09/10 03:05:22;;;;;;;3.67;1.70;;;15.20;99.90;;;;;;5005005;28;20667;-84
2022/09/10 03:07:50;;;;;;;3.30;1.90;;;15.10;99.90;;;;;;4982710;28;20644;-83
2022/09/10 03:10:17;;;;;;;4.70;1.90;;;15.10;99.90;;;;;;4991699;28;20632;-84
2022/09/10 03:12:44;;;;;;;3.30;1.77;;;15.20;99.90;;;;;;4983079;28;20660;-84
2022/09/10 03:15:11;;;;;;;5.20;2.40;;;15.20;99.90;;;;;;4981832;28;21293;-84
2022/09/10 03:17:38;;;;;;;3.03;1.70;;;15.10;99.90;;;;;;4982957;28;20747;-84
2022/09/10 03:20:06;;;;;;;2.40;2.00;;;15.10;99.90;;;;;;4983872;28;21011;-83
2022/09/10 03:22:32;;;;;;;2.43;1.80;;;15.10;99.90;;;;;;4984662;28;20684;-83
2022/09/10 03:25:00;;;;;;;4.47;1.77;;;15.10;99.90;;;;;;4982707;28;20653;-83
2022/09/10 03:27:27;;;;;;;4.03;1.70;;;15.00;99.90;;;;;;4982470;28;20636;-83
2022/09/10 03:29:54;;;;;;;2.87;1.77;;;15.00;99.90;;;;;;4979540;28;21053;-83
2022/09/10 03:32:21;;;;;;;3.23;2.00;;;15.00;99.90;;;;;;4981883;28;20637;-83
2022/09/10 03:34:48;;;;;;;3.77;1.97;;;15.00;99.90;;;;;;4983345;28;21051;-83
2022/09/10 03:37:15;;;;;;;3.10;1.70;;;15.00;99.90;;;;;;4980041;28;20649;-84
2022/09/10 03:39:42;;;;;;;1.70;1.60;;;15.00;99.90;;;;;;4979649;28;21199;-84
2022/09/10 03:42:11;;;;;;;4.80;1.70;;;15.00;99.90;;;;;;4980642;28;20637;-84
2022/09/10 03:44:38;;;;;;;2.70;1.77;;;15.00;99.90;;;;;;4982074;28;20660;-84
2022/09/10 03:47:05;;;;;;;2.20;1.97;;;15.00;99.90;;;;;;4987110;28;20632;-84
2022/09/10 03:49:31;;;;;;;2.60;2.17;;;15.00;99.90;;;;;;4982517;28;20635;-85
2022/09/10 03:51:59;;;;;;;2.57;1.80;;;15.00;99.90;;;;;;4980020;28;20656;-84
2022/09/10 03:54:26;;;;;;;2.50;1.60;;;15.00;99.90;;;;;;4981349;28;20680;-83
2022/09/10 03:56:52;;;;;;;2.00;1.33;;;15.00;99.90;;;;;;4983824;28;20644;-83
2022/09/10 03:59:21;;;;;;;4.10;1.93;;;15.00;99.90;;;;;;4980913;28;20635;-84
2022/09/10 04:01:49;;;;;;;2.47;1.37;;;15.00;99.90;;;;;;4982318;28;20723;-84
2022/09/10 04:04:16;;;;;;;3.47;1.50;;;15.10;99.90;;;;;;4981362;28;20676;-84
2022/09/10 04:06:44;;;;;;;2.30;1.33;;;15.10;99.90;;;;;;4989896;28;20734;-84
2022/09/10 04:09:11;;;;;;;2.17;1.50;;;15.00;99.90;;;;;;5002039;28;20664;-84
2022/09/10 04:11:38;;;;;;;3.30;1.30;;;15.00;99.90;;;;;;5001702;28;20726;-84
2022/09/10 04:14:05;;;;;;;1.50;1.40;;;15.00;99.90;;;;;;4998752;28;20715;-84
2022/09/10 04:16:34;;;;;;;2.40;1.43;;;14.90;99.90;;;;;;5001249;28;20636;-84
2022/09/10 04:19:01;;;;;;;1.60;1.20;;;14.90;99.90;;;;;;4997280;28;20776;-84
2022/09/10 04:21:28;;;;;;;3.50;1.23;;;14.90;99.90;;;;;;5004788;28;20651;-85
2022/09/10 04:23:55;;;;;;;2.67;1.30;;;14.90;99.90;;;;;;4999337;28;20632;-84
2022/09/10 04:26:22;;;;;;;4.50;1.67;;;14.90;99.90;;;;;;4999436;28;20637;-85
2022/09/10 04:28:49;;;;;;;2.73;1.60;;;14.90;99.90;;;;;;5002316;28;21007;-84
2022/09/10 04:31:16;;;;;;;3.10;1.30;;;15.00;99.90;;;;;;5002629;28;20647;-85
2022/09/10 04:33:44;;;;;;;4.37;1.70;;;14.90;99.90;;;;;;4987836;28;20672;-85
2022/09/10 04:36:11;;;;;;;1.80;1.50;;;14.90;99.90;;;;;;5001132;28;20714;-84
2022/09/10 04:38:40;;;;;;;3.40;1.30;;;14.90;99.90;;;;;;5000462;28;20643;-84
2022/09/10 04:41:08;;;;;;;2.43;1.30;;;14.90;99.90;;;;;;4998453;28;20647;-85
2022/09/10 04:43:36;;;;;;;3.57;2.13;;;14.90;99.90;;;;;;5005723;28;20643;-84
2022/09/10 04:46:03;;;;;;;2.90;1.13;;;14.90;99.90;;;;;;5000394;28;21283;-84
2022/09/10 04:48:30;;;;;;;1.90;1.00;;;14.90;99.90;;;;;;5001987;28;21181;-84
2022/09/10 04:50:58;;;;;;;2.77;1.30;;;14.90;99.90;;;;;;5002449;28;20664;-84
2022/09/10 04:53:26;;;;;;;2.40;1.33;;;14.80;99.90;;;;;;5001971;28;20666;-85
2022/09/10 04:55:54;;;;;;;3.03;1.57;;;14.90;99.90;;;;;;5003732;28;20648;-84
2022/09/10 04:58:21;;;;;;;2.30;1.13;;;14.90;99.90;;;;;;5002105;28;21018;-84
2022/09/10 05:00:49;;;;;;;2.57;1.30;;;14.90;99.90;;;;;;5004064;28;20655;-85
2022/09/10 05:03:15;;;;;;;3.57;1.20;;;14.90;99.90;;;;;;4998528;28;20640;-85
2022/09/10 05:05:42;;;;;;;2.63;1.60;;;14.90;99.90;;;;;;4995938;28;20666;-86
2022/09/10 05:08:11;;;;;;;2.60;1.23;;;14.80;99.90;;;;;;5004276;28;20628;-86
2022/09/10 05:10:39;;;;;;;5.17;1.73;;;14.90;99.90;;;;;;5001000;28;20620;-85
2022/09/10 05:13:06;;;;;;;1.33;1.10;;;14.90;99.90;;;;;;5000933;28;20628;-85
2022/09/10 05:15:33;;;;;;;4.60;1.60;;;14.90;99.90;;;;;;5002638;28;20686;-86
2022/09/10 05:18:00;;;;;;;4.37;1.33;;;14.90;99.90;;;;;;4998138;28;21137;-85
2022/09/10 05:20:27;;;;;;;3.23;1.37;;;14.90;99.90;;;;;;5000625;28;20654;-85
2022/09/10 05:22:55;;;;;;;2.40;1.40;;;14.90;99.90;;;;;;5002311;28;20749;-85
2022/09/10 05:25:24;;;;;;;1.30;1.20;;;14.90;99.90;;;;;;4999002;28;20661;-85
2022/09/10 05:27:51;;;;;;;2.13;1.20;;;14.90;99.90;;;;;;5003036;28;20710;-84
2022/09/10 05:30:18;;;;;;;1.87;1.43;;;14.90;99.90;;;;;;5000427;28;20636;-84
2022/09/10 05:32:45;;;;;;;2.60;1.40;;;14.90;99.90;;;;;;4997854;28;20675;-84
2022/09/10 05:35:12;;;;;;;3.17;1.17;;;15.00;99.90;;;;;;4999433;28;21102;-84
2022/09/10 05:37:39;;;;;;;3.23;1.13;;;15.00;99.90;;;;;;4999606;28;21005;-85
2022/09/10 05:40:08;;;;;;;1.80;1.33;;;15.00;99.90;;;;;;4997905;28;20645;-85
2022/09/10 05:42:36;;;;;;;3.00;1.33;;;15.00;99.90;;;;;;5004838;28;20735;-85
2022/09/10 05:45:03;;;;;;;2.03;1.83;;;15.00;99.90;;;;;;4996545;28;20668;-84
2022/09/10 05:47:29;;;;;;;2.33;1.27;;;15.10;99.90;;;;;;5000311;28;20616;-84
2022/09/10 05:49:57;;;;;;;3.40;1.37;;;15.10;99.90;;;;;;4998944;28;20652;-84
2022/09/10 05:52:25;;;;;;;2.87;1.80;;;15.10;99.90;;;;;;4998103;28;20636;-85
2022/09/10 05:54:53;;;;;;;2.80;1.13;;;15.10;99.90;;;;;;5001352;28;21041;-84
2022/09/10 05:57:20;;;;;;;2.23;1.20;;;15.10;99.90;;;;;;5002304;28;20632;-83
2022/09/10 05:59:48;;;;;;;6.70;1.23;;;15.20;99.90;;;;;;5004957;28;20964;-84
2022/09/10 06:02:17;;;;;;;2.73;1.50;;;15.10;99.90;;;;;;5003529;28;20643;-84
2022/09/10 06:04:44;;;;;;;2.10;1.20;;;15.10;99.90;;;;;;5007005;28;20670;-84
2022/09/10 06:07:11;;;;;;;2.43;1.57;;;15.10;99.90;;;;;;5000611;28;20682;-84
2022/09/10 06:09:38;;;;;;;3.03;1.70;;;15.20;99.90;;;;;;5008654;28;20654;-84
2022/09/10 06:12:06;;;;;;;3.27;1.90;;;15.20;99.90;;;;;;4998115;28;20638;-85
2022/09/10 06:14:33;;;;;;;3.73;1.63;;;15.20;99.90;;;;;;5003926;28;21038;-85
2022/09/10 06:17:01;;;;;;;1.90;1.50;;;15.20;99.90;;;;;;4997924;28;20672;-84
2022/09/10 06:19:29;;;;;;;1.97;1.70;;;15.30;99.90;;;;;;5000477;28;20658;-85
2022/09/10 06:21:56;;;;;;;2.20;1.60;;;15.30;99.90;;;;;;5005738;28;20972;-84
2022/09/10 06:24:23;;;;;;;1.47;1.37;;;15.30;99.90;;;;;;5002357;28;21037;-85
2022/09/10 06:26:50;;;;;;;2.00;1.17;;;15.40;99.90;;;;;;5001161;28;20631;-84
2022/09/10 06:29:26;;;;;;;4.00;0.80;;;15.30;99.90;;;;;;5015161;28;20634;-94
2022/09/10 06:31:54;;;;;;;3.90;1.03;;;15.80;99.90;;;;;;5021421;28;20662;-94
2022/09/10 06:34:30;;;;;;;7.27;1.13;;;16.60;99.90;;;;;;5036556;28;20757;-95
2022/09/10 06:37:07;;;;;;;3.53;1.27;;;17.30;99.90;;;;;;5029567;28;20642;-94
2022/09/10 11:26:18;;;;;;;1.80;0.80;;;20.70;99.90;;;;;;4928219;29;20714;-84
2022/09/10 11:28:56;;;;;;;2.63;0.70;;;20.80;99.90;;;;;;4929524;29;20646;-83
2022/09/10 11:31:30;;;;;;;2.23;0.80;;;20.80;99.90;;;;;;4929468;29;21165;-81
2022/09/10 11:34:02;;;;;;;5.10;0.80;;;20.90;99.90;;;;;;4930796;29;20635;-82
2022/09/10 11:36:33;;;;;;;2.20;1.00;;;21.00;99.90;;;;;;4923214;29;20627;-82
2022/09/10 11:39:10;;;;;;;1.20;0.63;;;21.20;99.90;;;;;;4926595;29;20632;-84
2022/09/10 11:41:41;;;;;;;1.13;0.67;;;21.60;99.90;;;;;;4930808;29;20654;-83
2022/09/10 11:44:33;;;;;;;1.03;0.60;;;22.20;98.90;;;;;;4920494;29;20684;-83
2022/09/10 11:47:06;;;;;;;1.83;0.63;;;22.40;96.00;;;;;;4929018;29;20722;-83
2022/09/10 11:49:42;;;;;;;2.40;0.60;;;22.40;96.80;;;;;;4927835;29;20651;-81
2022/09/10 11:52:10;;;;;;;2.00;0.70;;;22.50;96.80;;;;;;4925823;29;20650;-81
2022/09/10 11:54:38;;;;;;;2.47;1.30;;;22.40;96.20;;;;;;4927415;29;20687;-81
2022/09/10 11:57:12;;;;;;;3.10;1.30;;;22.20;95.30;;;;;;4923995;29;20644;-81
2022/09/10 11:59:54;;;;;;;3.10;1.20;;;22.00;96.00;;;;;;4925278;29;21156;-81
2022/09/10 12:02:51;;;;;;;3.00;1.10;;;21.80;96.60;;;;;;4922600;29;20616;-82
2022/09/10 12:05:26;;;;;;;1.50;1.30;;;21.70;97.00;;;;;;4928470;29;20663;-83
2022/09/10 12:08:04;;;;;;;1.40;1.30;;;21.50;99.90;;;;;;4923210;29;21229;-83
2022/09/10 12:10:35;;;;;;;1.80;1.10;;;21.50;99.90;;;;;;4925024;29;21174;-81
2022/09/10 12:13:09;;;;;;;1.63;1.00;;;21.60;99.90;;;;;;4926491;29;20659;-82
2022/09/10 12:15:37;;;;;;;1.63;1.10;;;21.60;99.90;;;;;;4926404;29;20703;-83
2022/09/10 12:18:12;;;;;;;1.20;0.90;;;21.70;99.90;;;;;;4926485;29;21261;-84
2022/09/10 12:20:43;;;;;;;2.57;1.10;;;21.80;99.90;;;;;;4927459;29;21001;-84
2022/09/10 12:23:16;;;;;;;3.13;1.40;;;21.90;99.90;;;;;;4926944;29;20620;-83
2022/09/10 12:25:43;;;;;;;1.00;0.80;;;22.00;99.90;;;;;;4927913;29;20655;-84
2022/09/10 12:29:00;;;;;;;3.33;1.60;;;22.20;99.90;;;;;;4907010;29;20643;-83
2022/09/10 12:31:27;;;;;;;4.60;2.60;;;22.40;99.20;;;;;;4926666;29;20631;-82
2022/09/10 12:34:16;;;;;;;3.13;1.13;;;22.50;99.50;;;;;;4924740;29;20643;-82
2022/09/10 12:37:25;;;;;;;1.93;0.90;;;22.50;99.90;;;;;;4922454;29;20635;-82
2022/09/10 12:40:37;;;;;;;1.10;0.90;;;22.50;99.90;;;;;;4919915;29;20650;-81
2022/09/10 12:43:37;;;;;;;2.80;1.00;;;22.30;99.10;;;;;;4910188;29;20640;-83
2022/09/10 12:46:18;;;;;;;1.97;0.90;;;22.20;99.90;;;;;;4923462;29;20660;-83
2022/09/10 12:48:47;;;;;;;2.47;1.00;;;22.00;99.90;;;;;;4926175;29;20686;-84
2022/09/10 12:51:29;;;;;;;3.60;1.83;;;21.80;99.90;;;;;;4923405;29;21378;-84
2022/09/10 12:54:10;;;;;;;2.17;1.23;;;21.80;99.90;;;;;;4922894;29;20646;-84
2022/09/10 12:57:07;;;;;;;2.33;0.87;;;21.80;99.90;;;;;;4929296;29;20873;-82
2022/09/10 13:00:03;;;;;;;1.60;0.83;;;21.70;99.90;;;;;;4922052;29;20721;-82
2022/09/10 13:02:34;;;;;;;1.10;0.90;;;21.70;99.90;;;;;;4917410;29;20706;-82
2022/09/10 13:05:05;;;;;;;3.23;1.20;;;21.60;99.90;;;;;;4925202;29;20760;-82
2022/09/10 13:07:39;;;;;;;1.93;0.57;;;21.40;99.90;;;;;;4931861;29;20734;-82
2022/09/10 13:10:15;;;;;;;2.53;1.03;;;21.20;99.90;;;;;;4931218;29;20691;-82
2022/09/10 13:12:44;;;;;;;4.00;0.93;;;21.10;99.90;;;;;;4933962;29;20623;-82
2022/09/10 13:15:18;;;;;;;2.00;1.30;;;21.00;99.90;;;;;;4931552;29;20714;-82
2022/09/10 13:18:22;;;;;;;2.37;0.93;;;20.80;99.90;;;;;;4930932;29;20638;-83
2022/09/10 13:20:49;;;;;;;2.50;0.80;;;20.80;99.90;;;;;;4932820;29;20784;-82
2022/09/10 13:23:23;;;;;;;1.00;0.70;;;20.80;99.90;;;;;;4933584;29;20628;-83
2022/09/10 13:25:52;;;;;;;2.30;0.80;;;21.00;99.90;;;;;;4923399;29;20678;-82
2022/09/10 13:29:08;;;;;;;3.13;1.00;;;21.20;99.90;;;;;;4927530;29;20725;-82
2022/09/10 13:31:39;;;;;;;2.50;0.93;;;21.40;99.10;;;;;;4907114;29;20716;-83
2022/09/10 13:34:41;;;;;;;0.90;0.70;;;21.40;98.80;;;;;;4926020;29;20707;-82
2022/09/10 13:37:33;;;;;;;2.40;1.53;;;21.40;98.20;;;;;;4924660;29;21189;-82
2022/09/10 13:40:30;;;;;;;1.53;0.80;;;21.30;97.70;;;;;;4931868;29;20642;-82
2022/09/10 13:43:17;;;;;;;1.53;0.50;;;21.20;97.20;;;;;;4931097;29;20639;-82
2022/09/10 13:45:52;;;;;;;1.83;0.60;;;21.10;98.90;;;;;;4932550;29;20694;-82
2022/09/10 13:48:21;;;;;;;0.80;0.67;;;20.90;99.40;;;;;;4932150;29;20653;-83
2022/09/10 13:50:58;;;;;;;2.57;1.00;;;20.90;99.90;;;;;;4930765;29;20995;-82
2022/09/10 13:53:27;;;;;;;1.03;0.80;;;20.80;99.50;;;;;;4932185;29;20650;-82
2022/09/10 13:55:57;;;;;;;1.67;0.97;;;20.70;99.90;;;;;;4930248;29;21048;-83
2022/09/10 13:58:30;;;;;;;1.73;0.70;;;20.70;99.90;;;;;;4925644;29;20638;-82
2022/09/10 14:00:59;;;;;;;2.30;1.60;;;20.80;99.90;;;;;;4927821;29;20639;-83
2022/09/10 14:03:30;;;;;;;1.87;1.23;;;20.90;99.90;;;;;;4928712;29;20619;-83
2022/09/10 14:06:03;;;;;;;2.57;1.50;;;21.10;99.50;;;;;;4926263;29;20659;-83
2022/09/10 14:08:34;;;;;;;1.47;1.20;;;21.20;99.30;;;;;;4930901;29;21330;-82
2022/09/10 14:11:07;;;;;;;1.63;1.17;;;21.20;99.90;;;;;;4923448;29;21189;-83
2022/09/10 14:13:38;;;;;;;3.50;1.30;;;21.20;99.90;;;;;;4924595;29;21341;-82
2022/09/10 14:16:09;;;;;;;4.57;1.27;;;21.20;99.90;;;;;;4926617;29;20671;-82
2022/09/10 14:18:44;;;;;;;1.43;1.10;;;21.20;99.90;;;;;;4924252;29;20634;-82
2022/09/10 14:21:14;;;;;;;1.53;1.27;;;21.00;99.90;;;;;;4928442;29;20662;-82
2022/09/10 14:23:45;;;;;;;1.90;1.30;;;20.90;99.90;;;;;;4930001;29;20655;-82
2022/09/10 14:26:22;;;;;;;1.17;1.07;;;20.60;99.90;;;;;;4927706;29;20643;-82
2022/09/10 14:28:54;;;;;;;2.13;1.23;;;20.40;99.90;;;;;;4926922;29;20693;-82
2022/09/10 14:31:29;;;;;;;3.37;0.80;;;20.10;99.90;;;;;;4925084;29;20624;-83
2022/09/10 14:33:58;;;;;;;1.50;0.93;;;19.90;99.90;;;;;;4926814;29;20642;-82
2022/09/10 14:36:33;;;;;;;1.23;0.80;;;19.70;99.90;;;;;;4925176;29;21256;-82
2022/09/10 14:39:06;;;;;;;2.80;0.80;;;19.60;99.90;;;;;;4925559;29;20619;-82
2022/09/10 14:41:35;;;;;;;2.43;0.67;;;19.60;99.90;;;;;;4928293;29;20635;-83
2022/09/10 14:44:28;;;;;;;1.20;0.60;;;19.60;99.90;;;;;;4925786;29;21000;-83
2022/09/10 14:46:57;;;;;;;2.47;0.77;;;19.50;99.90;;;;;;4925255;29;21036;-83
2022/09/10 14:49:27;;;;;;;1.47;0.60;;;19.50;99.90;;;;;;4926794;29;20656;-83
2022/09/10 14:51:57;;;;;;;1.23;0.83;;;19.50;99.90;;;;;;4925292;29;20662;-83
2022/09/10 14:54:24;;;;;;;6.20;0.80;;;19.50;99.90;;;;;;4926815;29;20681;-83
2022/09/10 14:56:51;;;;;;;1.00;0.57;;;19.50;99.90;;;;;;4925311;29;20674;-82
2022/09/10 14:59:26;;;;;;;3.37;0.50;;;19.50;99.90;;;;;;4920514;29;20643;-83
2022/09/10 15:01:53;;;;;;;2.87;0.80;;;19.60;99.90;;;;;;4926522;29;21153;-84
2022/09/10 15:04:22;;;;;;;1.83;0.97;;;19.70;99.90;;;;;;4925952;29;20677;-83
2022/09/10 15:06:52;;;;;;;2.57;1.77;;;19.70;99.90;;;;;;4923680;29;20632;-83
2022/09/10 15:09:21;;;;;;;2.50;1.10;;;19.90;99.90;;;;;;4927781;29;20672;-84
2022/09/10 15:11:54;;;;;;;2.00;0.60;;;20.30;99.90;;;;;;4929324;29;20730;-84
2022/09/10 15:14:21;;;;;;;1.33;0.80;;;21.00;99.90;;;;;;4925266;29;20836;-83
2022/09/10 15:16:51;;;;;;;1.10;0.63;;;21.50;99.90;;;;;;4928171;29;20764;-84
2022/09/10 15:19:17;;;;;;;1.30;1.20;;;21.90;99.90;;;;;;4925782;29;20646;-83
2022/09/10 15:21:44;;;;;;;1.50;1.50;;;22.40;99.90;;;;;;4928487;29;20642;-83
2022/09/10 15:24:14;;;;;;;1.20;1.20;;;22.60;99.90;;;;;;4924863;29;21036;-82
2022/09/10 15:26:43;;;;;;;2.00;1.53;;;22.60;99.90;;;;;;4925996;29;21174;-83
2022/09/10 15:29:11;;;;;;;1.43;1.27;;;22.80;99.90;;;;;;4924789;29;20639;-82
2022/09/10 15:31:38;;;;;;;3.07;1.50;;;22.80;96.50;;;;;;4925531;29;20635;-82
2022/09/10 15:34:06;;;;;;;1.40;1.30;;;22.50;98.20;;;;;;4927436;29;21456;-81
2022/09/10 15:36:34;;;;;;;1.83;1.73;;;22.30;98.80;;;;;;4925046;29;21453;-81
2022/09/10 15:39:02;;;;;;;1.90;1.80;;;22.20;99.80;;;;;;4923669;29;20743;-82
2022/09/10 15:41:29;;;;;;;2.93;2.10;;;21.80;99.90;;;;;;4926303;29;20635;-82
2022/09/10 15:43:58;;;;;;;3.80;1.50;;;21.30;99.90;;;;;;4923101;29;20667;-82
2022/09/10 15:46:25;;;;;;;3.43;1.43;;;21.10;99.90;;;;;;4924067;29;20623;-81
2022/09/10 15:48:52;;;;;;;2.50;1.50;;;20.80;99.90;;;;;;4925754;29;20639;-81
2022/09/10 15:51:21;;;;;;;1.50;1.40;;;20.50;99.90;;;;;;4927003;29;20945;-81
2022/09/10 15:53:49;;;;;;;1.37;1.27;;;20.20;99.90;;;;;;4923233;29;20639;-81
2022/09/10 15:56:17;;;;;;;2.93;0.83;;;19.90;99.90;;;;;;4923678;29;20675;-81
2022/09/10 15:58:47;;;;;;;3.10;1.23;;;19.80;99.90;;;;;;4927714;29;20631;-81
2022/09/10 16:01:16;;;;;;;3.57;1.77;;;19.60;99.90;;;;;;4924308;29;20660;-81
2022/09/10 16:03:45;;;;;;;5.37;1.80;;;19.30;99.90;;;;;;4926366;29;20650;-81
2022/09/10 16:06:13;;;;;;;2.83;1.60;;;18.80;99.90;;;;;;4923302;29;20631;-81
2022/09/10 16:08:40;;;;;;;4.10;1.40;;;18.50;99.90;;;;;;4928487;29;20627;-81
2022/09/10 16:11:08;;;;;;;2.10;1.20;;;18.20;99.90;;;;;;4923172;29;20767;-81
2022/09/10 16:13:36;;;;;;;2.50;1.23;;;18.10;99.90;;;;;;4929701;29;21048;-81
2022/09/10 16:16:05;;;;;;;1.70;1.07;;;18.00;99.90;;;;;;4924774;29;20822;-81
2022/09/10 16:18:33;;;;;;;2.83;1.33;;;17.90;99.90;;;;;;4926845;29;20763;-81
2022/09/10 16:21:08;;;;;;;1.47;0.87;;;17.80;99.90;;;;;;4924592;29;20635;-82
2022/09/10 16:23:35;;;;;;;2.67;1.23;;;17.70;99.90;;;;;;4924594;29;20673;-82
2022/09/10 16:26:04;;;;;;;6.70;1.27;;;17.60;99.90;;;;;;4925810;29;20662;-81
2022/09/10 16:28:31;;;;;;;2.67;1.07;;;17.60;99.90;;;;;;4923983;29;20745;-82
2022/09/10 16:31:07;;;;;;;2.83;1.43;;;17.60;99.90;;;;;;4923800;29;20631;-81
2022/09/10 16:33:36;;;;;;;2.80;1.10;;;17.50;99.90;;;;;;4927061;29;20635;-82
2022/09/10 16:36:04;;;;;;;1.57;1.07;;;17.50;99.90;;;;;;4920734;29;21019;-82
2022/09/10 16:38:31;;;;;;;3.33;0.80;;;17.50;99.90;;;;;;4923462;29;20631;-82
2022/09/10 16:41:00;;;;;;;1.30;0.83;;;17.50;99.90;;;;;;4922773;29;20639;-81
2022/09/10 16:43:27;;;;;;;2.17;1.23;;;17.60;99.90;;;;;;4929867;29;20615;-81
2022/09/10 16:45:55;;;;;;;2.13;1.50;;;17.50;99.90;;;;;;4925781;29;20662;-81
2022/09/10 16:48:22;;;;;;;1.30;1.00;;;17.50;99.90;;;;;;4924062;29;20648;-82
2022/09/10 16:50:50;;;;;;;3.03;1.50;;;17.50;99.90;;;;;;4925839;29;20646;-82
2022/09/10 16:53:17;;;;;;;1.60;1.13;;;17.90;99.90;;;;;;4923786;29;20640;-82
2022/09/10 16:55:46;;;;;;;2.90;1.80;;;18.10;99.90;;;;;;4923876;29;21039;-82
2022/09/10 16:58:13;;;;;;;1.53;1.10;;;18.40;99.90;;;;;;4924824;29;20828;-81
2022/09/10 17:00:43;;;;;;;3.97;1.43;;;18.60;99.90;;;;;;4928578;29;20635;-81
2022/09/10 17:03:10;;;;;;;1.00;0.63;;;18.60;99.90;;;;;;4923854;29;21003;-82
2022/09/10 17:05:37;;;;;;;3.90;0.87;;;18.80;99.90;;;;;;4923611;29;20663;-81
2022/09/10 17:08:05;;;;;;;3.30;1.20;;;19.10;99.90;;;;;;4924703;29;21187;-82
2022/09/10 17:10:32;;;;;;;2.37;1.60;;;19.30;99.90;;;;;;4924947;29;20639;-81
2022/09/10 17:12:58;;;;;;;1.63;1.30;;;19.60;99.90;;;;;;4926749;29;20639;-81
2022/09/10 17:15:25;;;;;;;1.17;0.87;;;19.60;99.90;;;;;;4923410;29;20659;-81
2022/09/10 17:17:52;;;;;;;4.23;1.33;;;19.50;99.90;;;;;;4925775;29;21279;-82
2022/09/10 17:20:19;;;;;;;1.90;1.60;;;19.40;99.90;;;;;;4921626;29;20683;-82
2022/09/10 17:22:45;;;;;;;3.10;1.60;;;19.30;99.90;;;;;;4924581;29;20679;-83
2022/09/10 17:25:13;;;;;;;1.70;1.60;;;19.20;99.90;;;;;;4924090;29;20678;-82
2022/09/10 17:27:40;;;;;;;3.50;2.20;;;19.10;99.90;;;;;;4927110;29;20980;-81
2022/09/10 17:30:08;;;;;;;3.83;2.37;;;18.90;99.90;;;;;;4921336;29;20628;-81
2022/09/10 17:32:35;;;;;;;2.10;1.90;;;18.80;99.90;;;;;;4923699;29;20639;-81
2022/09/10 17:35:01;;;;;;;2.37;2.17;;;18.60;99.90;;;;;;4925779;29;20671;-81
2022/09/10 17:37:28;;;;;;;2.00;1.73;;;18.50;99.90;;;;;;4923527;29;20671;-82
2022/09/10 17:39:55;;;;;;;1.83;1.70;;;18.40;99.90;;;;;;4924422;29;20639;-81
2022/09/10 17:42:23;;;;;;;6.60;2.20;;;18.40;99.90;;;;;;4926366;29;20631;-82
2022/09/10 17:44:50;;;;;;;3.10;2.33;;;18.30;99.90;;;;;;4923391;29;20709;-82
2022/09/10 17:47:17;;;;;;;3.27;1.40;;;18.10;99.90;;;;;;4929436;29;20620;-82
2022/09/10 17:49:44;;;;;;;4.37;1.10;;;18.10;99.90;;;;;;4926113;29;20670;-81
2022/09/10 17:52:13;;;;;;;1.80;0.80;;;18.00;99.90;;;;;;4927363;29;20640;-84